createdAt,value
2023-04-12T00:02:18.481Z,44.39
2023-04-12T00:07:21.316Z,44.44
2023-04-12T00:12:24.069Z,44.68
2023-04-12T00:17:28.279Z,44.78
2023-04-12T00:22:31.268Z,44.82
2023-04-12T00:27:34.057Z,44.75
2023-04-12T00:32:38.462Z,44.96
2023-04-12T00:37:41.347Z,44.96
2023-04-12T00:42:44.740Z,45.11
2023-04-12T00:47:48.906Z,45.66
2023-04-12T00:52:51.934Z,45.73
2023-04-12T00:57:54.929Z,45.58
2023-04-12T01:03:02.518Z,45.61
2023-04-12T01:08:12.031Z,45.95
2023-04-12T01:13:21.709Z,46.01
2023-04-12T01:18:28.022Z,45.78
2023-04-12T01:23:43.366Z,46.05
2023-04-12T01:28:47.605Z,45.75
2023-04-12T01:33:50.335Z,46.08
2023-04-12T01:38:53.705Z,45.98
2023-04-12T01:43:58.133Z,46.37
2023-04-12T01:49:01.218Z,46.41
2023-04-12T01:54:11.241Z,46.64
2023-04-12T01:59:16.443Z,46.55
2023-04-12T02:04:19.181Z,46.73
2023-04-12T02:09:22.601Z,46.75
2023-04-12T02:14:27.029Z,47.01
2023-04-12T02:19:30.102Z,47.11
2023-04-12T02:24:33.607Z,47.21
2023-04-12T02:29:37.753Z,47.22
2023-04-12T02:34:40.596Z,47.04
2023-04-12T02:39:51.979Z,47.01
2023-04-12T02:44:57.968Z,47.32
2023-04-12T02:50:00.887Z,47.21
2023-04-12T02:55:05.836Z,47.20
2023-04-12T03:00:13.279Z,47.37
2023-04-12T03:05:19.420Z,47.34
2023-04-12T03:10:22.376Z,47.31
2023-04-12T03:15:34.098Z,47.58
2023-04-12T03:20:39.206Z,47.69
2023-04-12T03:25:45.531Z,47.79
2023-04-12T03:31:10.557Z,47.79
2023-04-12T03:36:18.995Z,47.88
2023-04-12T03:41:27.647Z,47.79
2023-04-12T03:46:32.424Z,47.72
2023-04-12T03:51:42.655Z,48.00
2023-04-12T03:56:46.497Z,47.76
2023-04-12T04:01:58.938Z,47.64
2023-04-12T04:07:03.955Z,47.88
2023-04-12T04:12:15.024Z,47.65
2023-04-12T04:17:23.475Z,47.71
2023-04-12T04:22:26.723Z,47.82
2023-04-12T04:27:30.669Z,47.91
2023-04-12T04:32:35.552Z,47.70
2023-04-12T04:37:38.611Z,47.85
2023-04-12T04:42:42.899Z,47.80
2023-04-12T04:47:47.664Z,47.98
2023-04-12T04:52:50.893Z,48.05
2023-04-12T04:57:54.420Z,47.98
2023-04-12T05:02:58.878Z,47.83
2023-04-12T05:08:04.441Z,47.82
2023-04-12T05:13:10.681Z,48.00
2023-04-12T05:18:16.017Z,47.82
2023-04-12T05:23:18.823Z,48.05
2023-04-12T05:28:21.856Z,47.87
2023-04-12T05:33:26.579Z,47.95
2023-04-12T05:38:29.502Z,47.73
2023-04-12T05:43:37.588Z,47.82
2023-04-12T05:48:43.006Z,47.68
2023-04-12T05:53:45.803Z,47.74
2023-04-12T05:58:50.072Z,47.74
2023-04-12T06:03:54.925Z,47.76
2023-04-12T06:09:00.562Z,47.57
2023-04-12T06:14:04.517Z,47.68
2023-04-12T06:19:09.090Z,47.54
2023-04-12T06:24:11.881Z,47.56
2023-04-12T06:29:14.853Z,47.73
2023-04-12T06:34:19.539Z,47.41
2023-04-12T06:39:22.491Z,47.35
2023-04-12T06:44:26.285Z,47.52
2023-04-12T06:49:30.530Z,47.37
2023-04-12T06:54:33.269Z,47.34
2023-04-12T06:59:36.070Z,47.38
2023-04-12T07:04:40.464Z,46.79
2023-04-12T07:09:43.296Z,44.32
2023-04-12T07:14:46.034Z,44.40
2023-04-12T07:19:50.364Z,43.95
2023-04-12T07:24:53.150Z,42.07
2023-04-12T07:29:55.975Z,40.78
2023-04-12T07:35:00.428Z,40.81
2023-04-12T07:40:03.365Z,40.34
2023-04-12T07:45:06.975Z,39.43
2023-04-12T07:50:13.286Z,40.32
2023-04-12T07:55:16.156Z,40.61
2023-04-12T08:00:19.825Z,40.75
2023-04-12T08:05:24.039Z,41.09
2023-04-12T08:10:26.823Z,41.36
2023-04-12T08:15:29.719Z,41.45
2023-04-12T08:20:34.085Z,41.53
2023-04-12T08:25:36.881Z,41.90
2023-04-12T08:30:39.710Z,41.99
2023-04-12T08:35:43.807Z,41.91
2023-04-12T08:40:47.217Z,42.06
2023-04-12T08:45:50.117Z,42.43
2023-04-12T08:50:54.337Z,42.62
2023-04-12T08:55:57.088Z,42.67
2023-04-12T09:00:59.866Z,43.16
2023-04-12T09:06:05.928Z,43.88
2023-04-12T09:11:23.078Z,44.42
2023-04-12T09:16:36.019Z,44.49
2023-04-12T09:21:52.382Z,44.71
2023-04-12T09:27:03.618Z,45.06
2023-04-12T09:32:07.124Z,45.19
2023-04-12T09:37:17.750Z,45.46
2023-04-12T09:47:38.170Z,45.82
2023-04-12T09:52:42.325Z,34.66
2023-04-12T09:57:45.685Z,33.11
2023-04-12T10:02:51.236Z,32.75
2023-04-12T10:07:56.603Z,33.37
2023-04-12T10:13:00.262Z,32.47
2023-04-12T10:18:03.079Z,32.64
2023-04-12T10:23:07.351Z,33.59
2023-04-12T10:28:17.268Z,33.25
2023-04-12T10:33:20.779Z,32.61
2023-04-12T10:38:27.153Z,31.94
2023-04-12T10:43:30.134Z,32.72
2023-04-12T10:48:33.617Z,32.77
2023-04-12T10:53:37.734Z,32.10
2023-04-12T10:58:58.877Z,32.52
2023-04-12T11:04:09.311Z,32.44
2023-04-12T11:09:21.863Z,33.15
2023-04-12T11:14:28.638Z,34.77
2023-04-12T11:19:31.898Z,35.33
2023-04-12T11:24:38.551Z,35.92
2023-04-12T11:29:41.386Z,36.86
2023-04-12T11:34:46.883Z,37.20
2023-04-12T11:39:52.682Z,38.03
2023-04-12T11:45:00.289Z,38.72
2023-04-12T11:50:05.110Z,40.51
2023-04-12T11:55:11.380Z,40.10
2023-04-12T12:00:15.338Z,40.47
2023-04-12T12:05:18.372Z,41.21
2023-04-12T12:10:37.781Z,41.54
2023-04-12T12:15:46.114Z,42.68
2023-04-12T12:20:49.884Z,42.39
2023-04-12T12:26:02.970Z,41.53
2023-04-12T12:31:13.282Z,41.06
2023-04-12T12:36:19.651Z,40.74
2023-04-12T12:41:24.559Z,40.74
2023-04-12T12:46:37.386Z,40.68
2023-04-12T12:51:51.185Z,40.39
2023-04-12T12:56:55.468Z,40.34
2023-04-12T13:01:58.368Z,40.38
2023-04-12T13:07:01.294Z,40.56
2023-04-12T13:12:07.632Z,40.65
2023-04-12T13:17:11.862Z,41.04
2023-04-12T13:22:14.768Z,41.27
2023-04-12T13:27:18.969Z,41.79
2023-04-12T13:32:21.973Z,42.21
2023-04-12T13:37:25.187Z,42.51
2023-04-12T13:42:29.711Z,42.56
2023-04-12T13:47:33.746Z,42.77
2023-04-12T13:52:36.864Z,42.56
2023-04-12T13:57:41.113Z,42.59
2023-04-12T14:02:44.193Z,42.78
2023-04-12T14:07:47.966Z,43.19
2023-04-12T14:12:52.169Z,42.99
2023-04-12T14:17:56.121Z,42.83
2023-04-12T14:23:01.218Z,43.30
2023-04-12T14:28:05.657Z,43.20
2023-04-12T14:33:08.725Z,43.40
2023-04-12T14:38:12.652Z,43.54
2023-04-12T14:43:17.123Z,43.69
2023-04-12T14:48:21.092Z,43.76
2023-04-12T14:53:23.923Z,43.80
2023-04-12T14:58:29.444Z,44.16
2023-04-12T15:03:34.050Z,44.20
2023-04-12T15:08:41.635Z,44.42
2023-04-12T15:13:45.802Z,44.55
2023-04-12T15:18:50.248Z,44.44
2023-04-12T15:23:53.124Z,44.77
2023-04-12T15:28:57.240Z,44.38
2023-04-12T15:34:00.457Z,44.61
2023-04-12T15:39:04.652Z,44.86
2023-04-12T15:44:09.849Z,44.65
2023-04-12T15:49:12.764Z,44.94
2023-04-12T15:54:16.142Z,44.97
2023-04-12T15:59:20.320Z,45.28
2023-04-12T16:04:23.193Z,45.53
2023-04-12T16:09:26.424Z,45.46
2023-04-12T16:14:30.814Z,45.76
2023-04-12T16:19:33.563Z,45.62
2023-04-12T16:24:37.366Z,45.45
2023-04-12T16:29:41.573Z,45.01
2023-04-12T16:34:44.572Z,44.76
2023-04-12T16:39:47.613Z,44.90
2023-04-12T16:44:52.050Z,44.99
2023-04-12T16:49:54.888Z,45.49
2023-04-12T16:54:58.386Z,45.64
2023-04-12T17:00:04.349Z,45.75
2023-04-12T17:05:08.417Z,46.45
2023-04-12T17:10:11.360Z,46.88
2023-04-12T17:15:16.385Z,46.95
2023-04-12T17:20:19.880Z,46.93
2023-04-12T17:25:22.944Z,46.85
2023-04-12T17:30:30.929Z,46.79
2023-04-12T17:35:33.963Z,46.76
2023-04-12T17:40:37.586Z,46.60
2023-04-12T17:45:41.911Z,46.46
2023-04-12T17:50:45.723Z,46.47
2023-04-12T17:55:50.594Z,46.35
2023-04-12T18:00:54.987Z,46.38
2023-04-12T18:05:59.296Z,46.22
2023-04-12T18:11:03.965Z,46.43
2023-04-12T18:16:08.422Z,46.25
2023-04-12T18:21:11.386Z,46.43
2023-04-12T18:26:14.240Z,46.13
2023-04-12T18:31:18.921Z,46.18
2023-04-12T18:36:21.924Z,45.98
2023-04-12T18:41:24.983Z,46.01
2023-04-12T18:46:29.632Z,45.86
2023-04-12T18:51:33.812Z,45.94
2023-04-12T18:56:36.641Z,45.98
2023-04-12T19:01:41.045Z,45.92
2023-04-12T19:06:45.101Z,45.62
2023-04-12T19:11:47.999Z,45.67
2023-04-12T19:16:52.992Z,45.84
2023-04-12T19:21:55.901Z,45.53
2023-04-12T19:26:58.703Z,45.78
2023-04-12T19:32:05.366Z,45.59
2023-04-12T19:37:08.278Z,45.70
2023-04-12T19:42:11.851Z,45.54
2023-04-12T19:47:16.085Z,45.32
2023-04-12T19:52:21.785Z,45.41
2023-04-12T19:57:25.060Z,45.24
2023-04-12T20:02:29.421Z,45.53
2023-04-12T20:07:32.331Z,45.31
2023-04-12T20:12:35.266Z,45.16
2023-04-12T20:17:41.167Z,45.17
2023-04-12T20:22:45.828Z,45.02
2023-04-12T20:27:52.430Z,45.21
2023-04-12T20:32:57.207Z,45.01
2023-04-12T20:38:00.290Z,45.21
2023-04-12T20:43:03.446Z,45.06
2023-04-12T20:48:07.685Z,45.17
2023-04-12T20:53:15.033Z,44.98
2023-04-12T20:58:19.063Z,44.84
2023-04-12T21:03:23.265Z,44.95
2023-04-12T21:08:26.122Z,44.92
2023-04-12T21:13:28.973Z,44.85
2023-04-12T21:18:34.208Z,44.87
2023-04-12T21:23:37.543Z,44.81
2023-04-12T21:28:40.944Z,44.95
2023-04-12T21:33:45.058Z,44.89
2023-04-12T21:43:52.122Z,44.81
2023-04-12T21:48:56.406Z,44.72
2023-04-12T21:53:59.293Z,44.70
2023-04-12T21:59:02.485Z,44.78
2023-04-12T22:04:07.776Z,44.63
2023-04-12T22:09:10.605Z,44.69
2023-04-12T22:14:13.755Z,44.87
2023-04-12T22:19:18.784Z,45.06
2023-04-12T22:24:21.538Z,44.85
2023-04-12T22:29:25.368Z,45.10
2023-04-12T22:34:29.578Z,45.06
2023-04-12T22:39:32.522Z,44.90
2023-04-12T22:44:38.211Z,44.79
2023-04-12T22:49:50.185Z,44.73
2023-04-12T22:54:53.049Z,45.15
2023-04-12T22:59:55.814Z,45.18
2023-04-12T23:05:00.026Z,44.99
2023-04-12T23:10:03.108Z,45.24
2023-04-12T23:15:06.668Z,45.41
2023-04-12T23:20:13.302Z,45.51
2023-04-12T23:25:16.419Z,45.58
2023-04-12T23:30:20.151Z,45.78
2023-04-12T23:35:24.306Z,45.76
2023-04-12T23:40:27.140Z,45.93
2023-04-12T23:45:29.896Z,46.23
2023-04-12T23:50:34.005Z,46.45
2023-04-12T23:55:36.885Z,46.57
